Time,TemperatureF,DewpointF,PressureIn,WindDirection,WindDirectionDegrees,WindSpeedMPH,WindSpeedGustMPH,Humidity,HourlyPrecipIn,Conditions,Clouds,dailyrainin,SolarRadiationWatts/m^2,SoftwareType,DateUTC
2013-01-31 00:00:00,32.4,31.9,28.94,NNW,335,0.0,0.0,98,0.00,,,0.00,0,WeatherCatV1.11B39,2013-01-31 05:00:00,
2013-01-31 00:05:00,32.4,31.9,28.94,NNW,335,0.0,0.0,98,0.00,,,0.00,0,WeatherCatV1.11B39,2013-01-31 05:05:00,
2013-01-31 00:10:00,32.4,31.9,28.93,NNW,335,0.0,0.0,98,0.00,,,0.00,0,WeatherCatV1.11B39,2013-01-31 05:10:00,
2013-01-31 00:15:00,32.4,31.9,28.92,NNW,335,0.0,0.0,98,0.00,,,0.00,0,WeatherCatV1.11B39,2013-01-31 05:15:00,
2013-01-31 00:20:00,32.3,31.8,28.92,NNW,335,0.0,0.0,98,0.00,,,0.00,0,WeatherCatV1.11B39,2013-01-31 05:20:00,
2013-01-31 00:25:00,32.4,31.9,28.92,NNW,335,0.0,1.0,98,0.00,,,0.01,0,WeatherCatV1.11B39,2013-01-31 05:25:00,
2013-01-31 00:30:00,32.4,31.9,28.92,NNW,335,0.0,1.0,98,0.00,,,0.01,0,WeatherCatV1.11B39,2013-01-31 05:30:00,
2013-01-31 00:35:00,32.5,32.0,28.92,NNW,335,0.0,0.0,98,0.00,,,0.01,0,WeatherCatV1.11B39,2013-01-31 05:35:00,
2013-01-31 00:40:00,32.5,32.0,28.91,NNW,335,0.0,0.0,98,0.00,,,0.01,0,WeatherCatV1.11B39,2013-01-31 05:40:00,
2013-01-31 00:45:00,32.5,32.0,28.91,NNW,335,0.0,0.0,98,0.00,,,0.01,0,WeatherCatV1.11B39,2013-01-31 05:45:00,
2013-01-31 00:50:00,32.5,32.0,28.90,NNW,335,0.0,0.0,98,0.00,,,0.02,0,WeatherCatV1.11B39,2013-01-31 05:50:00,
2013-01-31 00:55:00,32.5,32.0,28.91,NNW,335,0.0,0.0,98,0.00,,,0.02,0,WeatherCatV1.11B39,2013-01-31 05:55:00,
2013-01-31 01:00:00,32.5,32.0,28.89,NNW,335,0.0,0.0,98,0.00,,,0.02,0,WeatherCatV1.11B39,2013-01-31 06:00:00,
2013-01-31 01:05:00,32.5,32.0,28.88,NNW,335,0.0,0.0,98,0.00,,,0.02,0,WeatherCatV1.11B39,2013-01-31 06:05:00,
2013-01-31 01:10:00,32.5,32.0,28.87,NNW,335,0.0,0.0,98,0.00,,,0.02,0,WeatherCatV1.11B39,2013-01-31 06:10:00,
2013-01-31 01:15:00,32.4,31.9,28.88,NNW,335,0.0,0.0,98,0.00,,,0.03,0,WeatherCatV1.11B39,2013-01-31 06:15:00,
2013-01-31 01:20:00,32.4,31.9,28.88,NNW,335,0.0,0.0,98,0.09,,,0.04,0,WeatherCatV1.11B39,2013-01-31 06:20:00,
2013-01-31 01:25:00,32.4,31.9,28.87,NNW,335,0.0,0.0,98,0.25,,,0.06,0,WeatherCatV1.11B39,2013-01-31 06:25:00,
2013-01-31 01:30:00,32.4,31.9,28.86,NNW,335,0.0,0.0,98,0.13,,,0.07,0,WeatherCatV1.11B39,2013-01-31 06:30:00,
2013-01-31 01:35:00,32.5,32.0,28.84,NNW,335,0.0,0.0,98,0.16,,,0.09,0,WeatherCatV1.11B39,2013-01-31 06:35:00,
2013-01-31 01:40:00,32.5,32.0,28.84,NNW,335,0.0,0.0,98,0.14,,,0.10,0,WeatherCatV1.11B39,2013-01-31 06:40:00,
2013-01-31 01:45:00,32.4,31.9,28.83,NNW,335,0.0,0.0,98,0.09,,,0.10,0,WeatherCatV1.11B39,2013-01-31 06:45:00,
2013-01-31 01:50:00,32.5,32.0,28.82,NNW,335,0.0,0.0,98,0.06,,,0.11,0,WeatherCatV1.11B39,2013-01-31 06:50:00,
2013-01-31 01:55:00,32.5,32.0,28.82,NNW,335,0.0,0.0,98,0.10,,,0.12,0,WeatherCatV1.11B39,2013-01-31 06:55:00,
2013-01-31 02:00:00,32.6,32.1,28.82,NNW,335,0.0,0.0,98,0.09,,,0.12,0,WeatherCatV1.11B39,2013-01-31 07:00:00,
2013-01-31 02:05:00,32.8,32.3,28.80,NW,326,0.0,1.0,98,0.61,,,0.16,0,WeatherCatV1.11B39,2013-01-31 07:05:00,
2013-01-31 02:10:00,32.8,32.3,28.80,NW,326,0.0,0.0,98,0.22,,,0.18,0,WeatherCatV1.11B39,2013-01-31 07:10:00,
2013-01-31 02:15:00,32.9,32.4,28.79,NW,326,0.0,0.0,98,0.47,,,0.22,0,WeatherCatV1.11B39,2013-01-31 07:15:00,
2013-01-31 02:20:00,33.0,32.5,28.79,NW,326,0.0,0.0,98,0.62,,,0.26,0,WeatherCatV1.11B39,2013-01-31 07:20:00,
2013-01-31 02:25:00,33.1,32.6,28.77,NW,326,0.0,0.0,98,0.35,,,0.29,0,WeatherCatV1.11B39,2013-01-31 07:25:00,
2013-01-31 02:30:00,33.1,32.6,28.77,NW,326,0.0,0.0,98,0.16,,,0.30,0,WeatherCatV1.11B39,2013-01-31 07:30:00,
2013-01-31 02:35:00,33.2,32.7,28.77,NW,326,0.0,0.0,98,0.10,,,0.31,0,WeatherCatV1.11B39,2013-01-31 07:35:00,
2013-01-31 02:40:00,33.2,32.7,28.76,NW,326,0.0,0.0,98,0.11,,,0.32,0,WeatherCatV1.11B39,2013-01-31 07:40:00,
2013-01-31 02:45:00,33.2,32.7,28.75,NW,326,0.0,0.0,98,0.27,,,0.34,0,WeatherCatV1.11B39,2013-01-31 07:45:00,
2013-01-31 02:50:00,33.3,32.8,28.75,NW,326,0.0,0.0,98,0.30,,,0.37,0,WeatherCatV1.11B39,2013-01-31 07:50:00,
2013-01-31 02:55:00,33.4,32.9,28.75,NW,326,0.0,0.0,98,0.54,,,0.40,0,WeatherCatV1.11B39,2013-01-31 07:55:00,
2013-01-31 03:00:00,33.5,33.0,28.74,NW,326,0.0,0.0,98,0.25,,,0.43,0,WeatherCatV1.11B39,2013-01-31 08:00:00,
2013-01-31 03:05:00,33.6,33.1,28.73,NW,326,0.0,0.0,98,0.19,,,0.44,0,WeatherCatV1.11B39,2013-01-31 08:05:00,
2013-01-31 03:10:00,33.6,33.3,28.72,NW,326,0.0,0.0,99,0.23,,,0.46,0,WeatherCatV1.11B39,2013-01-31 08:10:00,
2013-01-31 03:15:00,33.6,33.3,28.71,NW,326,0.0,0.0,99,0.30,,,0.49,0,WeatherCatV1.11B39,2013-01-31 08:15:00,
2013-01-31 03:20:00,33.7,33.4,28.71,NW,326,0.0,0.0,99,0.21,,,0.51,0,WeatherCatV1.11B39,2013-01-31 08:20:00,
2013-01-31 03:25:00,33.7,33.4,28.70,NW,326,0.0,0.0,99,0.30,,,0.53,0,WeatherCatV1.11B39,2013-01-31 08:25:00,
2013-01-31 03:30:00,33.8,33.5,28.69,NW,326,0.0,0.0,99,0.31,,,0.56,0,WeatherCatV1.11B39,2013-01-31 08:30:00,
2013-01-31 03:35:00,33.9,33.6,28.69,NW,326,0.0,0.0,99,0.24,,,0.58,0,WeatherCatV1.11B39,2013-01-31 08:35:00,
2013-01-31 03:40:00,34.0,33.5,28.68,NW,326,0.0,0.0,98,0.30,,,0.60,0,WeatherCatV1.11B39,2013-01-31 08:40:00,
2013-01-31 03:45:00,34.0,33.5,28.67,NW,326,0.0,0.0,98,0.18,,,0.61,0,WeatherCatV1.11B39,2013-01-31 08:45:00,
2013-01-31 03:50:00,34.0,33.5,28.67,NW,326,0.0,0.0,98,0.18,,,0.63,0,WeatherCatV1.11B39,2013-01-31 08:50:00,
2013-01-31 03:55:00,34.1,33.6,28.66,NW,326,0.0,0.0,98,0.17,,,0.64,0,WeatherCatV1.11B39,2013-01-31 08:55:00,
2013-01-31 04:00:00,34.0,33.5,28.66,NW,326,0.0,0.0,98,0.08,,,0.64,0,WeatherCatV1.11B39,2013-01-31 09:00:00,
2013-01-31 04:05:00,34.0,33.5,28.66,NW,326,0.0,0.0,98,0.40,,,0.67,0,WeatherCatV1.11B39,2013-01-31 09:05:00,
2013-01-31 04:10:00,34.0,33.5,28.65,NW,326,0.0,0.0,98,0.36,,,0.70,0,WeatherCatV1.11B39,2013-01-31 09:10:00,
2013-01-31 04:15:00,34.0,33.5,28.64,NW,326,0.0,0.0,98,0.18,,,0.71,0,WeatherCatV1.11B39,2013-01-31 09:15:00,
2013-01-31 04:20:00,34.0,33.5,28.65,NW,326,0.0,0.0,98,0.12,,,0.72,0,WeatherCatV1.11B39,2013-01-31 09:20:00,
2013-01-31 04:25:00,34.1,33.6,28.63,NW,326,0.0,0.0,98,0.20,,,0.74,0,WeatherCatV1.11B39,2013-01-31 09:25:00,
2013-01-31 04:30:00,34.1,33.6,28.62,NW,326,0.0,0.0,98,0.18,,,0.76,0,WeatherCatV1.11B39,2013-01-31 09:30:00,
2013-01-31 04:35:00,34.1,33.6,28.61,NW,326,0.0,0.0,98,0.10,,,0.76,0,WeatherCatV1.11B39,2013-01-31 09:35:00,
2013-01-31 04:40:00,34.1,33.6,28.60,NW,326,0.0,0.0,98,0.09,,,0.77,0,WeatherCatV1.11B39,2013-01-31 09:40:00,
2013-01-31 04:45:00,34.2,33.7,28.59,NW,326,0.0,0.0,98,0.07,,,0.77,0,WeatherCatV1.11B39,2013-01-31 09:45:00,
2013-01-31 04:50:00,34.4,34.1,28.58,NW,326,0.0,0.0,99,0.05,,,0.78,0,WeatherCatV1.11B39,2013-01-31 09:50:00,
2013-01-31 04:55:00,34.4,34.1,28.57,NW,326,0.0,0.0,99,0.05,,,0.78,0,WeatherCatV1.11B39,2013-01-31 09:55:00,
2013-01-31 05:00:00,34.4,34.1,28.56,NW,326,0.0,0.0,99,0.05,,,0.78,0,WeatherCatV1.11B39,2013-01-31 10:00:00,
2013-01-31 05:05:00,34.3,34.0,28.56,NW,326,0.0,0.0,99,0.00,,,0.78,0,WeatherCatV1.11B39,2013-01-31 10:05:00,
2013-01-31 05:10:00,34.2,33.7,28.55,NW,326,0.0,0.0,98,0.00,,,0.78,0,WeatherCatV1.11B39,2013-01-31 10:10:00,
2013-01-31 05:15:00,34.2,33.7,28.54,NW,326,0.0,0.0,98,0.00,,,0.79,0,WeatherCatV1.11B39,2013-01-31 10:15:00,
2013-01-31 05:20:00,34.1,33.6,28.54,NW,326,0.0,0.0,98,0.00,,,0.79,0,WeatherCatV1.11B39,2013-01-31 10:20:00,
2013-01-31 05:25:00,34.1,33.6,28.53,NW,326,0.0,0.0,98,0.05,,,0.80,0,WeatherCatV1.11B39,2013-01-31 10:25:00,
2013-01-31 05:30:00,34.1,33.6,28.53,NW,326,0.0,0.0,98,0.12,,,0.80,0,WeatherCatV1.11B39,2013-01-31 10:30:00,
2013-01-31 05:35:00,34.1,33.6,28.52,NW,326,0.0,0.0,98,0.22,,,0.82,0,WeatherCatV1.11B39,2013-01-31 10:35:00,
2013-01-31 05:40:00,34.2,33.7,28.52,NW,326,0.0,0.0,98,0.19,,,0.84,0,WeatherCatV1.11B39,2013-01-31 10:40:00,
2013-01-31 05:45:00,34.3,34.0,28.51,NW,326,0.0,0.0,99,0.13,,,0.85,0,WeatherCatV1.11B39,2013-01-31 10:45:00,
2013-01-31 05:50:00,34.4,34.1,28.50,NW,326,0.0,0.0,99,0.17,,,0.86,0,WeatherCatV1.11B39,2013-01-31 10:50:00,
2013-01-31 05:55:00,34.4,34.1,28.49,NW,326,0.0,0.0,99,0.19,,,0.88,0,WeatherCatV1.11B39,2013-01-31 10:55:00,
2013-01-31 06:00:00,34.8,34.5,28.48,NW,321,0.0,1.0,99,0.14,,,0.89,0,WeatherCatV1.11B39,2013-01-31 11:00:00,
2013-01-31 06:05:00,35.2,34.9,28.46,NW,321,0.0,1.0,99,0.15,,,0.90,0,WeatherCatV1.11B39,2013-01-31 11:05:00,
2013-01-31 06:10:00,35.9,35.6,28.46,NW,314,0.0,1.0,99,0.23,,,0.92,0,WeatherCatV1.11B39,2013-01-31 11:10:00,
2013-01-31 06:15:00,36.7,36.4,28.45,WSW,248,0.0,1.0,99,0.40,,,0.94,0,WeatherCatV1.11B39,2013-01-31 11:15:00,
2013-01-31 06:20:00,37.9,37.6,28.44,SSW,200,0.0,0.0,99,0.23,,,0.97,0,WeatherCatV1.11B39,2013-01-31 11:20:00,
2013-01-31 06:25:00,39.5,39.2,28.44,SW,220,0.0,2.0,99,0.18,,,0.98,0,WeatherCatV1.11B39,2013-01-31 11:25:00,
2013-01-31 06:30:00,40.7,40.4,28.43,SW,224,0.0,1.0,99,0.13,,,0.99,0,WeatherCatV1.11B39,2013-01-31 11:30:00,
2013-01-31 06:35:00,42.2,41.9,28.42,SW,228,0.0,1.0,99,0.21,,,1.01,0,WeatherCatV1.11B39,2013-01-31 11:35:00,
2013-01-31 06:40:00,42.8,42.5,28.42,SW,228,0.0,0.0,99,0.16,,,1.02,0,WeatherCatV1.11B39,2013-01-31 11:40:00,
2013-01-31 06:45:00,43.2,42.9,28.42,WNW,282,0.0,0.0,99,0.10,,,1.03,0,WeatherCatV1.11B39,2013-01-31 11:45:00,
2013-01-31 06:50:00,43.4,43.1,28.42,WNW,282,0.0,0.0,99,0.08,,,1.03,0,WeatherCatV1.11B39,2013-01-31 11:50:00,
2013-01-31 06:55:00,43.5,43.2,28.41,West,267,0.0,0.0,99,0.07,,,1.04,0,WeatherCatV1.11B39,2013-01-31 11:55:00,
2013-01-31 07:00:00,43.7,43.4,28.41,WSW,241,0.0,3.0,99,0.07,,,1.05,0,WeatherCatV1.11B39,2013-01-31 12:00:00,
2013-01-31 07:05:00,43.9,43.6,28.41,WSW,240,0.0,2.0,99,0.25,,,1.07,0,WeatherCatV1.11B39,2013-01-31 12:05:00,
2013-01-31 07:10:00,44.2,43.9,28.42,South,182,0.0,1.0,99,0.51,,,1.10,0,WeatherCatV1.11B39,2013-01-31 12:10:00,
2013-01-31 07:15:00,44.5,44.2,28.44,SSW,195,0.0,1.0,99,0.18,,,1.11,0,WeatherCatV1.11B39,2013-01-31 12:15:00,
2013-01-31 07:20:00,45.0,44.7,28.44,SW,226,0.0,1.0,99,0.08,,,1.11,0,WeatherCatV1.11B39,2013-01-31 12:20:00,
2013-01-31 07:25:00,45.9,45.9,28.44,South,172,0.0,2.0,100,0.06,,,1.12,0,WeatherCatV1.11B39,2013-01-31 12:25:00,
2013-01-31 07:30:00,47.0,46.7,28.43,South,172,1.0,1.0,99,0.06,,,1.12,0,WeatherCatV1.11B39,2013-01-31 12:30:00,
2013-01-31 07:35:00,47.5,47.2,28.42,South,172,0.0,1.0,99,0.06,,,1.13,0,WeatherCatV1.11B39,2013-01-31 12:35:00,
2013-01-31 07:40:00,47.6,47.6,28.43,South,172,0.0,1.0,100,0.06,,,1.13,0,WeatherCatV1.11B39,2013-01-31 12:40:00,
2013-01-31 07:45:00,47.7,47.7,28.42,South,172,0.0,2.0,100,0.07,,,1.14,5,WeatherCatV1.11B39,2013-01-31 12:45:00,
2013-01-31 07:50:00,47.7,47.7,28.42,South,172,0.0,0.0,100,0.07,,,1.14,0,WeatherCatV1.11B39,2013-01-31 12:50:00,
2013-01-31 07:55:00,47.7,47.7,28.42,South,172,0.0,1.0,100,0.04,,,1.14,0,WeatherCatV1.11B39,2013-01-31 12:55:00,
2013-01-31 08:00:00,47.6,47.6,28.41,South,172,0.0,0.0,100,0.00,,,1.14,5,WeatherCatV1.11B39,2013-01-31 13:00:00,
2013-01-31 08:05:00,47.5,47.5,28.41,South,172,1.0,1.0,100,0.00,,,1.15,5,WeatherCatV1.11B39,2013-01-31 13:05:00,
2013-01-31 08:10:00,47.3,47.0,28.41,South,172,0.0,1.0,99,0.00,,,1.15,14,WeatherCatV1.11B39,2013-01-31 13:10:00,
2013-01-31 08:15:00,47.0,47.0,28.40,South,172,0.0,1.0,100,0.00,,,1.15,14,WeatherCatV1.11B39,2013-01-31 13:15:00,
2013-01-31 08:20:00,46.7,46.4,28.39,South,172,0.0,0.0,99,0.00,,,1.15,7,WeatherCatV1.11B39,2013-01-31 13:20:00,
2013-01-31 08:25:00,46.2,45.9,28.36,South,172,0.0,0.0,99,0.00,,,1.15,12,WeatherCatV1.11B39,2013-01-31 13:25:00,
2013-01-31 08:30:00,45.7,45.7,28.37,South,172,1.0,1.0,100,0.00,,,1.15,7,WeatherCatV1.11B39,2013-01-31 13:30:00,
2013-01-31 08:35:00,45.2,44.9,28.37,SSW,209,0.0,1.0,99,0.00,,,1.15,12,WeatherCatV1.11B39,2013-01-31 13:35:00,
2013-01-31 08:40:00,44.9,44.6,28.37,SSW,209,0.0,1.0,99,0.00,,,1.15,25,WeatherCatV1.11B39,2013-01-31 13:40:00,
2013-01-31 08:45:00,44.6,44.3,28.37,SSW,209,0.0,1.0,99,0.00,,,1.15,26,WeatherCatV1.11B39,2013-01-31 13:45:00,
2013-01-31 08:50:00,44.7,44.4,28.37,SSW,209,0.0,1.0,99,0.00,,,1.15,26,WeatherCatV1.11B39,2013-01-31 13:50:00,
2013-01-31 08:55:00,44.7,44.4,28.36,SSW,209,0.0,1.0,99,0.00,,,1.15,19,WeatherCatV1.11B39,2013-01-31 13:55:00,
2013-01-31 09:00:00,44.8,44.5,28.36,SSW,209,0.0,0.0,99,0.00,,,1.15,32,WeatherCatV1.11B39,2013-01-31 14:00:00,
2013-01-31 09:05:00,44.9,44.6,28.36,SSW,209,0.0,0.0,99,0.00,,,1.15,28,WeatherCatV1.11B39,2013-01-31 14:05:00,
2013-01-31 09:10:00,44.9,44.6,28.35,SSW,209,0.0,1.0,99,0.00,,,1.16,42,WeatherCatV1.11B39,2013-01-31 14:10:00,
2013-01-31 09:15:00,44.9,44.6,28.35,SSW,209,0.0,1.0,99,0.00,,,1.16,30,WeatherCatV1.11B39,2013-01-31 14:15:00,
2013-01-31 09:20:00,44.9,44.6,28.34,SSW,205,0.0,1.0,99,0.00,,,1.16,28,WeatherCatV1.11B39,2013-01-31 14:20:00,
2013-01-31 09:25:00,45.1,44.8,28.33,SSW,197,0.0,1.0,99,0.00,,,1.16,23,WeatherCatV1.11B39,2013-01-31 14:25:00,
2013-01-31 09:30:00,45.4,45.1,28.33,SSW,197,0.0,1.0,99,0.00,,,1.16,46,WeatherCatV1.11B39,2013-01-31 14:30:00,
2013-01-31 09:35:00,45.8,45.5,28.33,SW,219,0.0,0.0,99,0.00,,,1.16,53,WeatherCatV1.11B39,2013-01-31 14:35:00,
2013-01-31 09:40:00,46.3,46.0,28.33,SSW,213,0.0,0.0,99,0.00,,,1.16,40,WeatherCatV1.11B39,2013-01-31 14:40:00,
2013-01-31 09:45:00,46.6,46.6,28.32,SSW,213,0.0,0.0,100,0.00,,,1.16,23,WeatherCatV1.11B39,2013-01-31 14:45:00,
2013-01-31 09:50:00,46.7,46.4,28.32,SSW,213,0.0,1.0,99,0.00,,,1.16,32,WeatherCatV1.11B39,2013-01-31 14:50:00,
2013-01-31 09:55:00,46.8,46.5,28.32,SW,228,1.0,3.0,99,0.00,,,1.16,16,WeatherCatV1.11B39,2013-01-31 14:55:00,
2013-01-31 10:00:00,47.1,47.1,28.34,WSW,241,0.0,2.0,100,0.00,,,1.16,69,WeatherCatV1.11B39,2013-01-31 15:00:00,
2013-01-31 10:05:00,47.3,47.3,28.35,SE,134,0.0,5.0,100,0.00,,,1.17,53,WeatherCatV1.11B39,2013-01-31 15:05:00,
2013-01-31 10:10:00,47.0,47.0,28.36,NW,309,0.0,3.0,100,0.00,,,1.17,42,WeatherCatV1.11B39,2013-01-31 15:10:00,
2013-01-31 10:15:00,46.5,46.2,28.36,NNE,20,0.0,1.0,99,0.00,,,1.17,58,WeatherCatV1.11B39,2013-01-31 15:15:00,
2013-01-31 10:20:00,45.5,45.2,28.38,SW,235,0.0,3.0,99,0.00,,,1.17,28,WeatherCatV1.11B39,2013-01-31 15:20:00,
2013-01-31 10:25:00,44.2,43.9,28.41,ESE,102,0.0,5.0,99,0.00,,,1.17,25,WeatherCatV1.11B39,2013-01-31 15:25:00,
2013-01-31 10:30:00,43.1,42.8,28.43,SE,130,2.0,2.0,99,0.00,,,1.18,26,WeatherCatV1.11B39,2013-01-31 15:30:00,
2013-01-31 10:35:00,42.3,42.0,28.42,North,355,2.0,4.0,99,0.00,,,1.18,26,WeatherCatV1.11B39,2013-01-31 15:35:00,
2013-01-31 10:40:00,41.7,41.4,28.43,SSE,150,0.0,3.0,99,0.07,,,1.19,25,WeatherCatV1.11B39,2013-01-31 15:40:00,
2013-01-31 10:46:00,41.3,41.0,28.42,SE,139,0.0,0.0,99,0.40,,,1.22,60,WeatherCatV1.11B39,2013-01-31 15:46:00,
2013-01-31 10:51:00,41.0,40.7,28.42,SE,139,0.0,1.0,99,0.19,,,1.23,116,WeatherCatV1.11B39,2013-01-31 15:51:00,
2013-01-31 10:56:00,40.9,40.6,28.42,SE,141,0.0,0.0,99,0.12,,,1.24,100,WeatherCatV1.11B39,2013-01-31 15:56:00,
2013-01-31 11:01:00,41.0,40.7,28.42,SE,141,0.0,0.0,99,0.06,,,1.24,113,WeatherCatV1.11B39,2013-01-31 16:01:00,
2013-01-31 11:06:00,41.1,40.8,28.41,SE,141,0.0,0.0,99,0.04,,,1.24,134,WeatherCatV1.11B39,2013-01-31 16:06:00,
2013-01-31 11:11:00,41.1,40.8,28.42,SE,141,0.0,0.0,99,0.00,,,1.24,104,WeatherCatV1.11B39,2013-01-31 16:11:00,
2013-01-31 11:16:00,41.1,40.8,28.42,SE,141,0.0,1.0,99,0.00,,,1.24,76,WeatherCatV1.11B39,2013-01-31 16:16:00,
2013-01-31 11:21:00,41.2,40.9,28.42,SE,141,0.0,0.0,99,0.00,,,1.24,116,WeatherCatV1.11B39,2013-01-31 16:21:00,
2013-01-31 11:26:00,41.2,40.9,28.42,SE,141,0.0,0.0,99,0.00,,,1.25,72,WeatherCatV1.11B39,2013-01-31 16:26:00,
2013-01-31 11:31:00,41.1,40.8,28.44,SE,141,0.0,1.0,99,0.00,,,1.25,88,WeatherCatV1.11B39,2013-01-31 16:31:00,
2013-01-31 11:36:00,41.2,40.9,28.44,SSW,193,0.0,0.0,99,0.00,,,1.25,105,WeatherCatV1.11B39,2013-01-31 16:36:00,
2013-01-31 11:41:00,41.4,41.1,28.45,West,261,0.0,0.0,99,0.00,,,1.25,139,WeatherCatV1.11B39,2013-01-31 16:41:00,
2013-01-31 11:46:00,41.5,41.2,28.45,SW,236,0.0,1.0,99,0.00,,,1.25,81,WeatherCatV1.11B39,2013-01-31 16:46:00,
2013-01-31 11:51:00,41.7,41.4,28.46,WSW,246,0.0,0.0,99,0.00,,,1.25,325,WeatherCatV1.11B39,2013-01-31 16:51:00,
2013-01-31 11:56:00,41.9,41.6,28.47,WSW,246,1.0,1.0,99,0.00,,,1.25,338,WeatherCatV1.11B39,2013-01-31 16:56:00,
2013-01-31 12:01:00,41.8,41.5,28.47,ENE,75,0.0,3.0,99,0.00,,,1.25,357,WeatherCatV1.11B39,2013-01-31 17:01:00,
2013-01-31 12:06:00,41.7,41.4,28.48,SE,143,1.0,2.0,99,0.00,,,1.25,141,WeatherCatV1.11B39,2013-01-31 17:06:00,
2013-01-31 12:11:00,41.4,41.1,28.48,SE,131,1.0,2.0,99,0.00,,,1.25,285,WeatherCatV1.11B39,2013-01-31 17:11:00,
2013-01-31 12:16:00,41.0,40.7,28.49,WSW,251,0.0,5.0,99,0.00,,,1.25,120,WeatherCatV1.11B39,2013-01-31 17:16:00,
2013-01-31 12:21:00,40.6,40.3,28.50,SE,127,1.0,1.0,99,0.00,,,1.25,44,WeatherCatV1.11B39,2013-01-31 17:21:00,
2013-01-31 12:26:00,40.3,39.5,28.50,SSW,200,2.0,3.0,97,0.00,,,1.25,77,WeatherCatV1.11B39,2013-01-31 17:26:00,
2013-01-31 12:31:00,40.1,37.4,28.51,SSE,155,0.0,10.0,90,0.00,,,1.25,74,WeatherCatV1.11B39,2013-01-31 17:31:00,
2013-01-31 12:36:00,40.3,37.3,28.51,South,169,2.0,2.0,89,0.00,,,1.25,322,WeatherCatV1.11B39,2013-01-31 17:36:00,
2013-01-31 12:41:00,40.6,36.2,28.52,NE,41,0.0,2.0,84,0.00,,,1.25,236,WeatherCatV1.11B39,2013-01-31 17:41:00,
2013-01-31 12:46:00,41.1,35.7,28.52,East,87,0.0,3.0,81,0.00,,,1.25,165,WeatherCatV1.11B39,2013-01-31 17:46:00,
2013-01-31 12:51:00,41.7,34.4,28.54,WSW,253,3.0,4.0,75,0.00,,,1.25,223,WeatherCatV1.11B39,2013-01-31 17:51:00,
2013-01-31 12:56:00,42.3,31.8,28.54,WSW,254,0.0,6.0,66,0.00,,,1.25,390,WeatherCatV1.11B39,2013-01-31 17:56:00,
2013-01-31 13:01:00,42.8,32.2,28.54,SW,236,0.0,0.0,66,0.00,,,1.25,246,WeatherCatV1.11B39,2013-01-31 18:01:00,
2013-01-31 13:06:00,43.2,30.7,28.54,NW,305,0.0,5.0,61,0.00,,,1.25,149,WeatherCatV1.11B39,2013-01-31 18:06:00,
2013-01-31 13:11:00,43.2,31.5,28.54,SE,140,0.0,3.0,63,0.00,,,1.25,84,WeatherCatV1.11B39,2013-01-31 18:11:00,
2013-01-31 13:16:00,43.2,31.9,28.54,WSW,248,1.0,3.0,64,0.00,,,1.25,202,WeatherCatV1.11B39,2013-01-31 18:16:00,
2013-01-31 13:21:00,43.1,29.8,28.55,NE,34,3.0,4.0,59,0.00,,,1.25,102,WeatherCatV1.11B39,2013-01-31 18:21:00,
2013-01-31 13:26:00,42.9,28.7,28.55,ENE,57,0.0,1.0,57,0.00,,,1.25,97,WeatherCatV1.11B39,2013-01-31 18:26:00,
2013-01-31 13:31:00,42.9,27.9,28.56,NNE,22,1.0,4.0,55,0.00,,,1.25,69,WeatherCatV1.11B39,2013-01-31 18:31:00,
2013-01-31 13:36:00,42.7,28.1,28.55,NNW,335,1.0,1.0,56,0.00,,,1.25,77,WeatherCatV1.11B39,2013-01-31 18:36:00,
2013-01-31 13:41:00,42.7,28.1,28.56,North,9,0.0,4.0,56,0.00,,,1.25,67,WeatherCatV1.11B39,2013-01-31 18:41:00,
2013-01-31 13:46:00,42.5,26.1,28.56,NE,49,1.0,7.0,52,0.00,,,1.25,35,WeatherCatV1.11B39,2013-01-31 18:46:00,
2013-01-31 13:51:00,42.4,27.8,28.57,North,5,0.0,2.0,56,0.00,,,1.25,35,WeatherCatV1.11B39,2013-01-31 18:51:00,
2013-01-31 13:56:00,42.2,28.9,28.57,ESE,105,0.0,2.0,59,0.00,,,1.25,28,WeatherCatV1.11B39,2013-01-31 18:56:00,
2013-01-31 14:01:00,42.0,27.0,28.58,WNW,294,0.0,0.0,55,0.00,,,1.25,49,WeatherCatV1.11B39,2013-01-31 19:01:00,
2013-01-31 14:06:00,41.8,26.8,28.58,SW,217,0.0,1.0,55,0.00,,,1.25,54,WeatherCatV1.11B39,2013-01-31 19:06:00,
2013-01-31 14:11:00,41.6,26.2,28.58,NNE,20,0.0,0.0,54,0.00,,,1.25,81,WeatherCatV1.11B39,2013-01-31 19:11:00,
2013-01-31 14:16:00,41.5,25.2,28.58,NE,51,2.0,4.0,52,0.00,,,1.25,121,WeatherCatV1.11B39,2013-01-31 19:16:00,
2013-01-31 14:21:00,41.5,25.2,28.59,North,5,0.0,2.0,52,0.00,,,1.25,100,WeatherCatV1.11B39,2013-01-31 19:21:00,
2013-01-31 14:26:00,41.6,26.6,28.59,West,272,0.0,1.0,55,0.00,,,1.25,84,WeatherCatV1.11B39,2013-01-31 19:26:00,
2013-01-31 14:31:00,41.6,25.8,28.60,WSW,240,0.0,5.0,53,0.00,,,1.25,181,WeatherCatV1.11B39,2013-01-31 19:31:00,
2013-01-31 14:36:00,41.7,25.4,28.60,South,182,0.0,2.0,52,0.00,,,1.25,79,WeatherCatV1.11B39,2013-01-31 19:36:00,
2013-01-31 14:41:00,41.7,26.3,28.60,ENE,63,0.0,4.0,54,0.00,,,1.25,70,WeatherCatV1.11B39,2013-01-31 19:41:00,
2013-01-31 14:46:00,41.6,24.8,28.61,SSW,204,1.0,4.0,51,0.00,,,1.25,72,WeatherCatV1.11B39,2013-01-31 19:46:00,
2013-01-31 14:51:00,41.5,25.7,28.61,SSE,164,0.0,12.0,53,0.00,,,1.25,93,WeatherCatV1.11B39,2013-01-31 19:51:00,
2013-01-31 14:56:00,41.4,25.6,28.62,West,261,1.0,3.0,53,0.00,,,1.25,76,WeatherCatV1.11B39,2013-01-31 19:56:00,
2013-01-31 15:01:00,41.2,24.9,28.63,SSW,206,0.0,2.0,52,0.00,,,1.25,91,WeatherCatV1.11B39,2013-01-31 20:01:00,
2013-01-31 15:06:00,41.1,23.9,28.64,NNE,28,1.0,3.0,50,0.00,,,1.25,90,WeatherCatV1.11B39,2013-01-31 20:06:00,
2013-01-31 15:11:00,41.0,24.7,28.64,SW,236,0.0,0.0,52,0.00,,,1.25,91,WeatherCatV1.11B39,2013-01-31 20:11:00,
2013-01-31 15:16:00,40.8,23.6,28.65,SSW,202,0.0,2.0,50,0.00,,,1.25,88,WeatherCatV1.11B39,2013-01-31 20:16:00,
2013-01-31 15:21:00,40.6,23.0,28.65,SSE,165,0.0,4.0,49,0.00,,,1.25,98,WeatherCatV1.11B39,2013-01-31 20:21:00,
2013-01-31 15:26:00,40.5,23.3,28.66,SSW,213,0.0,3.0,50,0.00,,,1.25,72,WeatherCatV1.11B39,2013-01-31 20:26:00,
2013-01-31 15:31:00,40.3,21.7,28.66,WSW,245,2.0,11.0,47,0.00,,,1.25,83,WeatherCatV1.11B39,2013-01-31 20:31:00,
2013-01-31 15:36:00,40.1,22.5,28.67,SW,224,0.0,1.0,49,0.00,,,1.25,62,WeatherCatV1.11B39,2013-01-31 20:36:00,
2013-01-31 15:41:00,39.8,21.2,28.67,West,267,1.0,2.0,47,0.00,,,1.25,70,WeatherCatV1.11B39,2013-01-31 20:41:00,
2013-01-31 15:46:00,39.6,21.0,28.69,South,186,1.0,3.0,47,0.00,,,1.25,47,WeatherCatV1.11B39,2013-01-31 20:46:00,
2013-01-31 15:51:00,39.2,20.7,28.68,South,189,0.0,2.0,47,0.00,,,1.25,40,WeatherCatV1.11B39,2013-01-31 20:51:00,
2013-01-31 15:56:00,38.8,20.3,28.69,SW,215,0.0,1.0,47,0.00,,,1.25,33,WeatherCatV1.11B39,2013-01-31 20:56:00,
2013-01-31 16:01:00,38.5,20.0,28.70,West,269,2.0,2.0,47,0.00,,,1.25,23,WeatherCatV1.11B39,2013-01-31 21:01:00,
2013-01-31 16:06:00,38.1,20.2,28.70,SE,140,1.0,3.0,48,0.00,,,1.25,19,WeatherCatV1.11B39,2013-01-31 21:06:00,
2013-01-31 16:11:00,37.7,19.8,28.71,South,175,0.0,1.0,48,0.00,,,1.25,16,WeatherCatV1.11B39,2013-01-31 21:11:00,
2013-01-31 16:16:00,37.3,19.4,28.71,SW,223,0.0,2.0,48,0.00,,,1.25,11,WeatherCatV1.11B39,2013-01-31 21:16:00,
2013-01-31 16:21:00,37.0,20.1,28.72,SW,226,0.0,1.0,50,0.00,,,1.25,7,WeatherCatV1.11B39,2013-01-31 21:21:00,
2013-01-31 16:26:00,36.7,20.3,28.73,SSW,196,0.0,3.0,51,0.00,,,1.25,7,WeatherCatV1.11B39,2013-01-31 21:26:00,
2013-01-31 16:31:00,36.5,20.1,28.73,South,184,0.0,1.0,51,0.00,,,1.25,0,WeatherCatV1.11B39,2013-01-31 21:31:00,
2013-01-31 16:36:00,36.2,20.7,28.74,SW,223,2.0,2.0,53,0.00,,,1.25,0,WeatherCatV1.11B39,2013-01-31 21:36:00,
2013-01-31 16:41:00,36.0,19.2,28.74,SW,222,0.0,2.0,50,0.00,,,1.25,0,WeatherCatV1.11B39,2013-01-31 21:41:00,
2013-01-31 16:46:00,35.8,20.4,28.74,WNW,302,0.0,2.0,53,0.00,,,1.25,0,WeatherCatV1.11B39,2013-01-31 21:46:00,
2013-01-31 16:51:00,35.6,21.0,28.75,WNW,294,0.0,1.0,55,0.00,,,1.25,0,WeatherCatV1.11B39,2013-01-31 21:51:00,
2013-01-31 16:56:00,35.3,19.9,28.75,WSW,238,0.0,0.0,53,0.00,,,1.25,0,WeatherCatV1.11B39,2013-01-31 21:56:00,
2013-01-31 17:01:00,35.1,18.8,28.75,SW,234,0.0,3.0,51,0.00,,,1.25,0,WeatherCatV1.11B39,2013-01-31 22:01:00,
2013-01-31 17:06:00,35.0,18.7,28.75,SW,218,0.0,3.0,51,0.00,,,1.25,0,WeatherCatV1.11B39,2013-01-31 22:06:00,
2013-01-31 17:11:00,34.8,18.1,28.75,SW,222,0.0,1.0,50,0.00,,,1.25,0,WeatherCatV1.11B39,2013-01-31 22:11:00,
2013-01-31 17:16:00,34.6,19.7,28.75,WSW,237,2.0,3.0,54,0.00,,,1.25,0,WeatherCatV1.11B39,2013-01-31 22:16:00,
2013-01-31 17:21:00,34.4,18.2,28.76,SW,227,0.0,0.0,51,0.00,,,1.25,0,WeatherCatV1.11B39,2013-01-31 22:21:00,
2013-01-31 17:26:00,34.4,18.2,28.76,South,182,0.0,4.0,51,0.00,,,1.25,0,WeatherCatV1.11B39,2013-01-31 22:26:00,
2013-01-31 17:31:00,34.4,18.2,28.77,SSE,159,0.0,4.0,51,0.00,,,1.25,0,WeatherCatV1.11B39,2013-01-31 22:31:00,
2013-01-31 17:36:00,34.3,19.8,28.77,SSW,206,0.0,1.0,55,0.00,,,1.25,0,WeatherCatV1.11B39,2013-01-31 22:36:00,
2013-01-31 17:41:00,34.2,19.3,28.77,SSW,195,1.0,1.0,54,0.00,,,1.25,0,WeatherCatV1.11B39,2013-01-31 22:41:00,
2013-01-31 17:46:00,34.0,18.2,28.78,South,178,0.0,1.0,52,0.00,,,1.25,0,WeatherCatV1.11B39,2013-01-31 22:46:00,
2013-01-31 17:51:00,33.9,18.2,28.78,SSW,196,0.0,1.0,52,0.00,,,1.25,0,WeatherCatV1.11B39,2013-01-31 22:51:00,
2013-01-31 17:56:00,33.8,18.5,28.78,SSE,154,0.0,0.0,53,0.00,,,1.25,0,WeatherCatV1.11B39,2013-01-31 22:56:00,
2013-01-31 18:01:00,33.6,17.9,28.79,WSW,240,0.0,6.0,52,0.00,,,1.25,0,WeatherCatV1.11B39,2013-01-31 23:01:00,
2013-01-31 18:06:00,33.5,17.3,28.79,SSE,166,0.0,1.0,51,0.00,,,1.25,0,WeatherCatV1.11B39,2013-01-31 23:06:00,
2013-01-31 18:11:00,33.4,15.8,28.79,SSE,155,0.0,11.0,48,0.00,,,1.25,0,WeatherCatV1.11B39,2013-01-31 23:11:00,
2013-01-31 18:16:00,33.3,17.6,28.80,SW,217,0.0,1.0,52,0.00,,,1.25,0,WeatherCatV1.11B39,2013-01-31 23:16:00,
2013-01-31 18:21:00,33.2,15.7,28.80,South,169,0.0,5.0,48,0.00,,,1.25,0,WeatherCatV1.11B39,2013-01-31 23:21:00,
2013-01-31 18:26:00,33.2,16.1,28.80,ENE,78,0.0,2.0,49,0.00,,,1.25,0,WeatherCatV1.11B39,2013-01-31 23:26:00,
2013-01-31 18:31:00,33.0,15.0,28.81,SW,219,0.0,4.0,47,0.00,,,1.25,0,WeatherCatV1.11B39,2013-01-31 23:31:00,
2013-01-31 18:36:00,33.0,16.4,28.81,SSE,164,2.0,6.0,50,0.00,,,1.25,0,WeatherCatV1.11B39,2013-01-31 23:36:00,
2013-01-31 18:41:00,32.9,15.4,28.81,WSW,240,0.0,0.0,48,0.00,,,1.25,0,WeatherCatV1.11B39,2013-01-31 23:41:00,
2013-01-31 18:46:00,32.8,15.8,28.81,South,181,0.0,2.0,49,0.00,,,1.25,0,WeatherCatV1.11B39,2013-01-31 23:46:00,
2013-01-31 18:51:00,32.7,16.1,28.81,WSW,246,0.0,0.0,50,0.00,,,1.25,0,WeatherCatV1.11B39,2013-01-31 23:51:00,
2013-01-31 18:56:00,32.6,16.5,28.82,WSW,242,0.0,1.0,51,0.00,,,1.25,0,WeatherCatV1.11B39,2013-01-31 23:56:00,
2013-01-31 19:01:00,32.5,16.0,28.82,WSW,241,0.0,0.0,50,0.00,,,1.25,0,WeatherCatV1.11B39,2013-02-01 00:01:00,
2013-01-31 19:06:00,32.5,17.3,28.82,WSW,241,0.0,0.0,53,0.00,,,1.25,0,WeatherCatV1.11B39,2013-02-01 00:06:00,
2013-01-31 19:11:00,32.4,16.8,28.83,SSE,157,0.0,1.0,52,0.00,,,1.25,0,WeatherCatV1.11B39,2013-02-01 00:11:00,
2013-01-31 19:16:00,32.3,18.0,28.83,SW,232,0.0,1.0,55,0.00,,,1.25,0,WeatherCatV1.11B39,2013-02-01 00:16:00,
2013-01-31 19:21:00,32.2,17.0,28.83,SW,235,0.0,1.0,53,0.00,,,1.25,0,WeatherCatV1.11B39,2013-02-01 00:21:00,
2013-01-31 19:26:00,32.1,17.4,28.83,SW,234,0.0,0.0,54,0.00,,,1.25,0,WeatherCatV1.11B39,2013-02-01 00:26:00,
2013-01-31 19:31:00,32.0,16.4,28.83,ESE,118,0.0,2.0,52,0.00,,,1.25,0,WeatherCatV1.11B39,2013-02-01 00:31:00,
2013-01-31 19:36:00,31.9,16.3,28.84,NNE,17,0.0,2.0,52,0.00,,,1.25,0,WeatherCatV1.11B39,2013-02-01 00:36:00,
2013-01-31 19:41:00,31.8,15.3,28.84,ENE,74,0.0,0.0,50,0.00,,,1.25,0,WeatherCatV1.11B39,2013-02-01 00:41:00,
2013-01-31 19:46:00,31.8,16.6,28.84,WSW,242,1.0,1.0,53,0.00,,,1.25,0,WeatherCatV1.11B39,2013-02-01 00:46:00,
2013-01-31 19:51:00,31.7,15.7,28.84,SW,218,0.0,0.0,51,0.00,,,1.25,0,WeatherCatV1.11B39,2013-02-01 00:51:00,
2013-01-31 19:56:00,31.7,17.0,28.84,SW,218,0.0,0.0,54,0.00,,,1.25,0,WeatherCatV1.11B39,2013-02-01 00:56:00,
2013-01-31 20:01:00,31.6,14.7,28.85,SE,128,0.0,2.0,49,0.00,,,1.25,0,WeatherCatV1.11B39,2013-02-01 01:01:00,
2013-01-31 20:06:00,31.6,15.6,28.84,SSW,198,0.0,1.0,51,0.00,,,1.25,0,WeatherCatV1.11B39,2013-02-01 01:06:00,
2013-01-31 20:11:00,31.5,14.1,28.86,South,183,0.0,1.0,48,0.00,,,1.25,0,WeatherCatV1.11B39,2013-02-01 01:11:00,
2013-01-31 20:16:00,31.5,13.1,28.85,SE,133,1.0,5.0,46,0.00,,,1.25,0,WeatherCatV1.11B39,2013-02-01 01:16:00,
2013-01-31 20:21:00,31.4,12.0,28.85,ENE,67,0.0,4.0,44,0.00,,,1.25,0,WeatherCatV1.11B39,2013-02-01 01:21:00,
2013-01-31 20:26:00,31.2,12.9,28.86,ESE,111,0.0,3.0,46,0.00,,,1.25,0,WeatherCatV1.11B39,2013-02-01 01:26:00,
2013-01-31 20:31:00,31.1,12.3,28.84,SW,221,1.0,10.0,45,0.00,,,1.25,0,WeatherCatV1.11B39,2013-02-01 01:31:00,
2013-01-31 20:36:00,31.0,12.2,28.86,South,188,0.0,4.0,45,0.00,,,1.25,0,WeatherCatV1.11B39,2013-02-01 01:36:00,
2013-01-31 20:41:00,31.0,11.7,28.87,NE,49,0.0,5.0,44,0.00,,,1.25,0,WeatherCatV1.11B39,2013-02-01 01:41:00,
2013-01-31 20:46:00,30.9,11.6,28.87,SE,143,0.0,3.0,44,0.00,,,1.25,0,WeatherCatV1.11B39,2013-02-01 01:46:00,
2013-01-31 20:51:00,30.8,13.5,28.87,NNW,329,3.0,3.0,48,0.00,,,1.25,0,WeatherCatV1.11B39,2013-02-01 01:51:00,
2013-01-31 20:56:00,30.6,12.3,28.87,SSE,165,0.0,7.0,46,0.00,,,1.25,0,WeatherCatV1.11B39,2013-02-01 01:56:00,
2013-01-31 21:01:00,30.6,13.7,28.88,SSE,159,0.0,1.0,49,0.00,,,1.25,0,WeatherCatV1.11B39,2013-02-01 02:01:00,
2013-01-31 21:06:00,30.5,14.6,28.88,East,80,0.0,2.0,51,0.00,,,1.25,0,WeatherCatV1.11B39,2013-02-01 02:06:00,
2013-01-31 21:11:00,30.3,15.2,28.89,North,10,0.0,0.0,53,0.00,,,1.25,0,WeatherCatV1.11B39,2013-02-01 02:11:00,
2013-01-31 21:16:00,30.2,13.8,28.89,North,355,0.0,0.0,50,0.00,,,1.25,0,WeatherCatV1.11B39,2013-02-01 02:16:00,
2013-01-31 21:21:00,30.1,15.5,28.89,NE,44,0.0,2.0,54,0.00,,,1.25,0,WeatherCatV1.11B39,2013-02-01 02:21:00,
2013-01-31 21:26:00,30.0,15.4,28.89,ENE,77,0.0,1.0,54,0.00,,,1.25,0,WeatherCatV1.11B39,2013-02-01 02:26:00,
2013-01-31 21:31:00,29.9,15.7,28.90,SW,216,0.0,2.0,55,0.00,,,1.25,0,WeatherCatV1.11B39,2013-02-01 02:31:00,
2013-01-31 21:36:00,29.9,13.5,28.89,North,11,0.0,2.0,50,0.00,,,1.25,0,WeatherCatV1.11B39,2013-02-01 02:36:00,
2013-01-31 21:41:00,29.8,14.3,28.90,NNE,24,0.0,2.0,52,0.00,,,1.25,0,WeatherCatV1.11B39,2013-02-01 02:41:00,
2013-01-31 21:46:00,29.7,15.9,28.90,NNE,22,1.0,4.0,56,0.00,,,1.25,0,WeatherCatV1.11B39,2013-02-01 02:46:00,
2013-01-31 21:51:00,29.6,17.1,28.91,WNW,299,1.0,4.0,59,0.00,,,1.25,0,WeatherCatV1.11B39,2013-02-01 02:51:00,
2013-01-31 21:56:00,29.3,17.9,28.91,West,265,2.0,5.0,62,0.00,,,1.25,0,WeatherCatV1.11B39,2013-02-01 02:56:00,
2013-01-31 22:01:00,29.0,19.1,28.92,NNW,338,1.0,2.0,66,0.00,,,1.25,0,WeatherCatV1.11B39,2013-02-01 03:01:00,
2013-01-31 22:06:00,28.7,19.5,28.92,NNE,24,1.0,6.0,68,0.00,,,1.25,0,WeatherCatV1.11B39,2013-02-01 03:06:00,
2013-01-31 22:11:00,28.2,19.7,28.93,NW,310,0.0,2.0,70,0.00,,,1.25,0,WeatherCatV1.11B39,2013-02-01 03:11:00,
2013-01-31 22:16:00,27.9,20.7,28.93,North,355,0.0,4.0,74,0.00,,,1.25,0,WeatherCatV1.11B39,2013-02-01 03:16:00,
2013-01-31 22:21:00,27.5,20.9,28.93,NNE,16,0.0,6.0,76,0.00,,,1.25,0,WeatherCatV1.11B39,2013-02-01 03:21:00,
2013-01-31 22:26:00,27.2,21.0,28.93,ENE,74,0.0,0.0,77,0.00,,,1.25,0,WeatherCatV1.11B39,2013-02-01 03:26:00,
2013-01-31 22:31:00,27.0,20.8,28.93,ENE,73,0.0,0.0,77,0.00,,,1.25,0,WeatherCatV1.11B39,2013-02-01 03:31:00,
2013-01-31 22:36:00,26.9,20.4,28.94,NE,44,0.0,1.0,76,0.00,,,1.25,0,WeatherCatV1.11B39,2013-02-01 03:36:00,
2013-01-31 22:41:00,26.7,19.9,28.94,ESE,115,0.0,1.0,75,0.00,,,1.25,0,WeatherCatV1.11B39,2013-02-01 03:41:00,
2013-01-31 22:46:00,26.7,20.2,28.95,ESE,115,0.0,0.0,76,0.00,,,1.25,0,WeatherCatV1.11B39,2013-02-01 03:46:00,
2013-01-31 22:51:00,26.6,19.1,28.95,NE,39,0.0,1.0,73,0.00,,,1.25,0,WeatherCatV1.11B39,2013-02-01 03:51:00,
2013-01-31 22:56:00,26.5,17.4,28.95,WSW,245,0.0,0.0,68,0.00,,,1.25,0,WeatherCatV1.11B39,2013-02-01 03:56:00,
2013-01-31 23:01:00,26.5,16.4,28.95,NNE,13,0.0,0.0,65,0.00,,,1.25,0,WeatherCatV1.11B39,2013-02-01 04:01:00,
2013-01-31 23:06:00,26.5,16.0,28.95,West,280,0.0,1.0,64,0.00,,,1.25,0,WeatherCatV1.11B39,2013-02-01 04:06:00,
2013-01-31 23:11:00,26.5,16.4,28.95,WNW,282,0.0,1.0,65,0.00,,,1.25,0,WeatherCatV1.11B39,2013-02-01 04:11:00,
2013-01-31 23:16:00,26.5,15.6,28.95,SW,226,0.0,1.0,63,0.00,,,1.25,0,WeatherCatV1.11B39,2013-02-01 04:16:00,
2013-01-31 23:21:00,26.5,14.9,28.95,East,92,0.0,1.0,61,0.00,,,1.25,0,WeatherCatV1.11B39,2013-02-01 04:21:00,
2013-01-31 23:26:00,26.5,15.3,28.96,NE,39,0.0,2.0,62,0.00,,,1.25,0,WeatherCatV1.11B39,2013-02-01 04:26:00,
2013-01-31 23:31:00,26.5,15.6,28.96,NE,39,0.0,0.0,63,0.00,,,1.25,0,WeatherCatV1.11B39,2013-02-01 04:31:00,
2013-01-31 23:36:00,26.5,16.0,28.96,NE,39,0.0,0.0,64,0.00,,,1.25,0,WeatherCatV1.11B39,2013-02-01 04:36:00,
2013-01-31 23:41:00,26.5,15.3,28.96,ESE,111,0.0,1.0,62,0.00,,,1.25,0,WeatherCatV1.11B39,2013-02-01 04:41:00,
2013-01-31 23:46:00,26.5,14.5,28.97,ESE,111,0.0,0.0,60,0.00,,,1.25,0,WeatherCatV1.11B39,2013-02-01 04:46:00,
2013-01-31 23:51:00,26.5,14.9,28.97,ENE,76,1.0,2.0,61,0.00,,,1.25,0,WeatherCatV1.11B39,2013-02-01 04:51:00,
2013-01-31 23:56:00,26.5,14.5,28.97,East,93,0.0,0.0,60,0.00,,,1.25,0,WeatherCatV1.11B39,2013-02-01 04:56:00,